Time;durP1;ratioP1;P1;durP2;ratioP2;P2;SDS_P1;SDS_P2;PMS_P1;PMS_P2;Temp;Humidity;BMP_temperature;BMP_pressure;BME280_temperature;BME280_humidity;BME280_pressure;Samples;Min_cycle;Max_cycle;Signal;HPM_P1;HPM_P2
2023/10/06 00:01:42;;;;;;;21.42;15.32;;;;;;;;;;4999342;28;20100;-74
2023/10/06 00:04:12;;;;;;;22.00;15.52;;;;;;;;;;4997145;28;20034;-74
2023/10/06 00:06:42;;;;;;;19.52;15.10;;;;;;;;;;4999822;28;20414;-74
2023/10/06 00:09:09;;;;;;;20.40;15.25;;;;;;;;;;4999943;28;20037;-74
2023/10/06 00:11:37;;;;;;;25.63;15.05;;;;;;;;;;5001284;28;20050;-74
2023/10/06 00:14:07;;;;;;;17.30;14.07;;;;;;;;;;4995286;28;20050;-75
2023/10/06 00:16:39;;;;;;;20.95;14.68;;;;;;;;;;4997543;28;20069;-75
2023/10/06 00:19:22;;;;;;;23.45;14.95;;;;;;;;;;4998087;28;20029;-75
2023/10/06 00:21:53;;;;;;;22.45;14.68;;;;;;;;;;4998929;28;20042;-75
2023/10/06 00:24:25;;;;;;;17.90;14.88;;;;;;;;;;5002248;28;20048;-75
2023/10/06 00:26:52;;;;;;;21.98;14.63;;;;;;;;;;4997558;28;20038;-75
2023/10/06 00:29:21;;;;;;;20.08;14.90;;;;;;;;;;4998278;28;20034;-75
2023/10/06 00:31:48;;;;;;;24.65;14.75;;;;;;;;;;5013726;28;20125;-75
2023/10/06 00:34:20;;;;;;;21.17;15.30;;;;;;;;;;5002634;28;20038;-75
2023/10/06 00:36:51;;;;;;;20.30;16.15;;;;;;;;;;4999938;28;20554;-75
2023/10/06 00:39:22;;;;;;;22.90;15.27;;;;;;;;;;4997258;28;20088;-75
2023/10/06 00:41:55;;;;;;;18.73;14.75;;;;;;;;;;5011679;28;20099;-75
2023/10/06 00:44:22;;;;;;;21.83;14.90;;;;;;;;;;4999235;28;20034;-75
2023/10/06 00:46:48;;;;;;;21.92;14.85;;;;;;;;;;5013710;28;20064;-75
2023/10/06 00:49:14;;;;;;;19.73;14.70;;;;;;;;;;4999073;28;20069;-75
2023/10/06 00:51:41;;;;;;;20.50;14.90;;;;;;;;;;4994181;28;20499;-75
2023/10/06 00:54:07;;;;;;;17.10;14.82;;;;;;;;;;4989563;28;20073;-75
2023/10/06 00:56:33;;;;;;;15.95;14.30;;;;;;;;;;4996680;28;20628;-75
2023/10/06 00:59:04;;;;;;;18.30;15.63;;;;;;;;;;4992095;28;20046;-74
2023/10/06 01:01:29;;;;;;;19.63;15.35;;;;;;;;;;4990920;28;20101;-75
2023/10/06 01:04:02;;;;;;;18.70;14.50;;;;;;;;;;5001748;28;20415;-75
2023/10/06 01:06:35;;;;;;;17.50;14.77;;;;;;;;;;4994178;28;20044;-75
2023/10/06 01:11:50;;;;;;;19.83;15.40;;;;;;;;;;4997004;28;20113;-75
2023/10/06 01:14:26;;;;;;;21.63;15.05;;;;;;;;;;4998878;28;20490;-75
2023/10/06 01:17:14;;;;;;;21.58;14.50;;;;;;;;;;4990086;28;20100;-75
2023/10/06 01:19:47;;;;;;;23.17;15.50;;;;;;;;;;4987514;28;20112;-75
2023/10/06 01:22:24;;;;;;;18.75;15.57;;;;;;;;;;5013959;28;20038;-75
2023/10/06 01:24:55;;;;;;;21.27;15.57;;;;;;;;;;4997098;28;20398;-75
2023/10/06 01:27:26;;;;;;;16.58;14.13;;;;;;;;;;4987613;28;20030;-75
2023/10/06 01:32:50;;;;;;;19.37;15.63;;;;;;;;;;4967975;28;20058;-75
2023/10/06 01:35:23;;;;;;;17.70;15.55;;;;;;;;;;4962890;28;20962;-75
2023/10/06 01:37:57;;;;;;;20.38;14.88;;;;;;;;;;4963811;28;20438;-75
2023/10/06 01:42:54;;;;;;;17.95;14.55;;;;;;;;;;4960787;28;20038;-76
2023/10/06 01:45:22;;;;;;;22.10;15.13;;;;;;;;;;4966987;28;20048;-75
2023/10/06 01:47:55;;;;;;;15.27;13.30;;;;;;;;;;4968216;28;20034;-75
2023/10/06 01:50:26;;;;;;;20.17;14.98;;;;;;;;;;4948126;28;20042;-75
2023/10/06 01:52:55;;;;;;;18.15;14.98;;;;;;;;;;4963034;28;20045;-75
2023/10/06 01:55:22;;;;;;;;;;;;;;;;;;4967000;28;20045;-75
2023/10/06 01:57:49;;;;;;;15.25;13.40;;;;;;;;;;4961989;28;19913;-75
2023/10/06 02:00:17;;;;;;;14.68;12.77;;;;;;;;;;4967887;28;20047;-74
2023/10/06 02:02:42;;;;;;;15.75;12.70;;;;;;;;;;4961682;28;20094;-74
2023/10/06 02:05:12;;;;;;;15.27;13.68;;;;;;;;;;4964961;28;20046;-75
2023/10/06 02:07:40;;;;;;;14.00;12.55;;;;;;;;;;4960815;28;20401;-74
2023/10/06 02:10:13;;;;;;;15.90;13.48;;;;;;;;;;4991445;28;20039;-74
2023/10/06 02:12:39;;;;;;;15.85;12.90;;;;;;;;;;4999621;28;20913;-74
2023/10/06 02:15:10;;;;;;;13.15;11.98;;;;;;;;;;4997962;28;20042;-75
2023/10/06 02:17:37;;;;;;;16.67;13.02;;;;;;;;;;4996646;28;20034;-75
2023/10/06 02:20:28;;;;;;;17.67;13.82;;;;;;;;;;4997450;28;20043;-74
2023/10/06 02:22:59;;;;;;;13.73;12.45;;;;;;;;;;5013464;28;20034;-74
2023/10/06 02:25:26;;;;;;;15.20;13.52;;;;;;;;;;4998504;28;20069;-74
2023/10/06 02:27:52;;;;;;;13.48;11.80;;;;;;;;;;4999333;28;20113;-74
2023/10/06 02:30:44;;;;;;;14.68;13.20;;;;;;;;;;4998052;28;20061;-74
2023/10/06 02:33:07;;;;;;;15.40;13.93;;;;;;;;;;4998316;28;20393;-74
2023/10/06 02:35:44;;;;;;;21.20;13.00;;;;;;;;;;4995404;28;20581;-74
2023/10/06 02:38:10;;;;;;;15.30;13.80;;;;;;;;;;4998541;28;20069;-75
2023/10/06 02:40:45;;;;;;;17.40;13.48;;;;;;;;;;4998147;28;20157;-74
2023/10/06 02:43:16;;;;;;;16.70;13.60;;;;;;;;;;4995934;28;20046;-74
2023/10/06 02:45:42;;;;;;;15.70;13.80;;;;;;;;;;4996279;28;20073;-74
2023/10/06 02:48:15;;;;;;;15.80;13.65;;;;;;;;;;5001422;28;20073;-74
2023/10/06 02:50:45;;;;;;;17.38;13.60;;;;;;;;;;4997093;28;20132;-74
2023/10/06 02:53:13;;;;;;;21.10;13.98;;;;;;;;;;5003743;28;20423;-74
2023/10/06 02:55:43;;;;;;;19.20;14.27;;;;;;;;;;4996678;28;20030;-74
2023/10/06 02:58:15;;;;;;;15.48;13.82;;;;;;;;;;4989443;28;20038;-75
2023/10/06 03:00:50;;;;;;;17.13;14.27;;;;;;;;;;4999145;28;20033;-74
2023/10/06 03:03:18;;;;;;;17.98;13.32;;;;;;;;;;5003086;28;20096;-74
2023/10/06 03:05:51;;;;;;;15.45;13.55;;;;;;;;;;5000800;28;20052;-74
2023/10/06 03:08:20;;;;;;;13.95;12.15;;;;;;;;;;5008497;28;20105;-75
2023/10/06 03:10:49;;;;;;;21.05;13.30;;;;;;;;;;5000484;28;20029;-75
2023/10/06 03:13:33;;;;;;;18.73;14.00;;;;;;;;;;5005875;28;20038;-75
2023/10/06 03:16:00;;;;;;;19.20;13.73;;;;;;;;;;5013622;28;20042;-75
2023/10/06 03:18:26;;;;;;;21.75;13.07;;;;;;;;;;5002531;28;20600;-75
2023/10/06 03:21:05;;;;;;;22.02;14.55;;;;;;;;;;5000115;28;20038;-75
2023/10/06 03:23:39;;;;;;;15.15;12.98;;;;;;;;;;5000943;28;20455;-75
2023/10/06 03:26:13;;;;;;;17.75;13.13;;;;;;;;;;4985797;28;20141;-74
2023/10/06 03:28:43;;;;;;;19.40;14.18;;;;;;;;;;5005053;28;20069;-74
2023/10/06 03:33:48;;;;;;;16.02;13.35;;;;;;;;;;5004066;28;20405;-75
2023/10/06 03:36:16;;;;;;;15.05;13.68;;;;;;;;;;5003523;28;20046;-75
2023/10/06 03:38:52;;;;;;;19.42;13.70;;;;;;;;;;5002590;28;20183;-75
2023/10/06 03:41:19;;;;;;;19.35;13.32;;;;;;;;;;5000781;28;20034;-75
2023/10/06 03:43:54;;;;;;;22.75;15.13;;;;;;;;;;4997646;28;20034;-75
2023/10/06 03:46:24;;;;;;;17.00;14.57;;;;;;;;;;5001581;28;20056;-75
2023/10/06 03:48:51;;;;;;;16.27;13.43;;;;;;;;;;4982769;28;20048;-74
2023/10/06 03:51:18;;;;;;;18.73;13.70;;;;;;;;;;4991787;28;20033;-74
2023/10/06 03:53:45;;;;;;;19.60;14.13;;;;;;;;;;4987698;28;20104;-74
2023/10/06 03:56:12;;;;;;;20.58;14.05;;;;;;;;;;5002871;28;20045;-74
2023/10/06 03:58:38;;;;;;;20.17;13.95;;;;;;;;;;5003733;28;20636;-74
2023/10/06 04:01:11;;;;;;;17.38;13.30;;;;;;;;;;5001468;28;20057;-74
2023/10/06 04:03:40;;;;;;;17.95;14.20;;;;;;;;;;4997362;28;20091;-74
2023/10/06 04:06:12;;;;;;;19.35;13.50;;;;;;;;;;4995308;28;20026;-74
2023/10/06 04:08:38;;;;;;;15.18;13.15;;;;;;;;;;4997988;28;20532;-74
2023/10/06 04:11:05;;;;;;;19.50;13.15;;;;;;;;;;5001699;28;20112;-74
2023/10/06 04:13:31;;;;;;;18.83;14.18;;;;;;;;;;4996210;28;20030;-74
2023/10/06 04:15:58;;;;;;;30.23;15.52;;;;;;;;;;5001139;28;20732;-75
2023/10/06 04:18:24;;;;;;;18.15;14.23;;;;;;;;;;4999476;28;20056;-74
2023/10/06 04:20:52;;;;;;;28.80;14.30;;;;;;;;;;5005069;28;20484;-74
2023/10/06 04:23:18;;;;;;;18.10;14.23;;;;;;;;;;5003473;28;20034;-74
2023/10/06 04:25:45;;;;;;;17.58;13.15;;;;;;;;;;5003813;28;20506;-76
2023/10/06 04:28:14;;;;;;;21.52;14.88;;;;;;;;;;4997543;28;20101;-76
2023/10/06 04:30:44;;;;;;;20.87;14.43;;;;;;;;;;4998185;28;20050;-74
2023/10/06 04:33:14;;;;;;;18.98;14.45;;;;;;;;;;4996880;28;20545;-75
2023/10/06 04:35:55;;;;;;;15.10;13.30;;;;;;;;;;4997926;28;20025;-75
2023/10/06 04:38:29;;;;;;;15.10;13.57;;;;;;;;;;4998301;28;20049;-75
2023/10/06 04:40:57;;;;;;;16.98;12.10;;;;;;;;;;5010733;28;20037;-75
2023/10/06 04:43:24;;;;;;;13.20;11.65;;;;;;;;;;4993410;28;20062;-75
2023/10/06 04:45:50;;;;;;;14.98;13.45;;;;;;;;;;4998721;28;20277;-75
2023/10/06 04:48:18;;;;;;;16.58;13.75;;;;;;;;;;5001030;28;20042;-75
2023/10/06 04:50:45;;;;;;;16.27;14.57;;;;;;;;;;5000835;28;20563;-75
2023/10/06 04:53:11;;;;;;;16.50;12.88;;;;;;;;;;4996269;28;20042;-75
2023/10/06 04:55:38;;;;;;;13.48;12.02;;;;;;;;;;4995136;28;20033;-75
2023/10/06 04:58:05;;;;;;;10.10;9.43;;;;;;;;;;4995132;28;20053;-75
2023/10/06 05:00:33;;;;;;;20.92;15.45;;;;;;;;;;5002143;28;20110;-75
2023/10/06 05:02:59;;;;;;;22.33;16.95;;;;;;;;;;5000700;28;20376;-75
2023/10/06 05:05:26;;;;;;;36.35;32.00;;;;;;;;;;5000285;28;20041;-75
2023/10/06 05:07:53;;;;;;;22.77;20.27;;;;;;;;;;4995717;28;20042;-75
2023/10/06 05:10:25;;;;;;;15.98;14.43;;;;;;;;;;5001894;28;20428;-75
2023/10/06 05:12:51;;;;;;;17.35;14.63;;;;;;;;;;4998716;28;20120;-75
2023/10/06 05:15:26;;;;;;;21.05;15.38;;;;;;;;;;4992067;28;20038;-75
2023/10/06 05:17:58;;;;;;;18.85;14.45;;;;;;;;;;4998744;28;20033;-75
2023/10/06 05:20:29;;;;;;;20.17;14.63;;;;;;;;;;4995876;28;20041;-75
2023/10/06 05:23:09;;;;;;;20.10;13.82;;;;;;;;;;4994377;28;20037;-75
2023/10/06 05:25:38;;;;;;;15.88;14.23;;;;;;;;;;4998527;28;20098;-75
2023/10/06 05:28:07;;;;;;;16.27;13.48;;;;;;;;;;5001221;28;20038;-75
2023/10/06 05:30:33;;;;;;;14.52;12.98;;;;;;;;;;4997911;28;20038;-76
2023/10/06 05:32:59;;;;;;;16.60;13.02;;;;;;;;;;4998956;28;20045;-76
2023/10/06 05:35:26;;;;;;;13.98;12.73;;;;;;;;;;5001035;28;20026;-76
2023/10/06 05:37:53;;;;;;;14.23;12.75;;;;;;;;;;4996050;28;20023;-76
2023/10/06 05:40:20;;;;;;;13.15;11.98;;;;;;;;;;5004384;28;20033;-75
2023/10/06 05:42:51;;;;;;;13.98;12.10;;;;;;;;;;5003450;28;20108;-76
2023/10/06 05:45:21;;;;;;;16.23;14.75;;;;;;;;;;5002983;28;20038;-75
2023/10/06 05:47:54;;;;;;;17.90;13.05;;;;;;;;;;5003872;28;20087;-76
2023/10/06 05:50:27;;;;;;;15.20;13.57;;;;;;;;;;5000498;28;20044;-76
2023/10/06 05:53:02;;;;;;;14.23;13.02;;;;;;;;;;5018485;28;20048;-75
2023/10/06 05:55:33;;;;;;;17.10;13.25;;;;;;;;;;4997846;28;20037;-76
2023/10/06 05:58:00;;;;;;;14.50;13.13;;;;;;;;;;4992062;28;20036;-76
2023/10/06 06:00:31;;;;;;;14.60;13.05;;;;;;;;;;4988702;28;20044;-75
2023/10/06 06:03:13;;;;;;;14.57;13.27;;;;;;;;;;4995179;28;20041;-74
2023/10/06 06:05:40;;;;;;;16.00;14.32;;;;;;;;;;4996962;28;20041;-75
2023/10/06 06:08:08;;;;;;;15.07;13.65;;;;;;;;;;4996824;28;20041;-75
2023/10/06 06:10:35;;;;;;;15.60;14.10;;;;;;;;;;5002961;28;20100;-75
2023/10/06 06:13:01;;;;;;;14.48;12.98;;;;;;;;;;4991949;28;20048;-75
2023/10/06 06:15:27;;;;;;;18.67;14.55;;;;;;;;;;4994049;28;20033;-75
2023/10/06 06:17:53;;;;;;;14.82;13.25;;;;;;;;;;4990683;28;20111;-76
2023/10/06 06:20:21;;;;;;;80.75;14.18;;;;;;;;;;4996726;28;20038;-76
2023/10/06 06:22:55;;;;;;;24.33;13.25;;;;;;;;;;4997336;28;20569;-76
2023/10/06 06:25:22;;;;;;;18.13;12.40;;;;;;;;;;5014450;28;20072;-76
2023/10/06 06:27:49;;;;;;;22.45;13.40;;;;;;;;;;4978359;28;20073;-76
2023/10/06 06:30:18;;;;;;;49.22;11.43;;;;;;;;;;4999922;28;20030;-76
2023/10/06 06:32:46;;;;;;;119.20;14.18;;;;;;;;;;4999356;28;20121;-76
2023/10/06 06:35:13;;;;;;;15.20;12.52;;;;;;;;;;4999169;28;20065;-76
2023/10/06 06:37:42;;;;;;;13.77;12.48;;;;;;;;;;4998318;28;20500;-76
2023/10/06 06:40:10;;;;;;;15.02;13.45;;;;;;;;;;4997625;28;20034;-76
2023/10/06 06:42:36;;;;;;;16.42;13.40;;;;;;;;;;4998289;28;20034;-76
2023/10/06 06:45:03;;;;;;;16.60;13.18;;;;;;;;;;5000282;28;20041;-76
2023/10/06 06:47:29;;;;;;;17.90;13.88;;;;;;;;;;5000004;28;20060;-76
2023/10/06 06:49:55;;;;;;;15.77;13.07;;;;;;;;;;4999975;28;20033;-75
2023/10/06 06:52:21;;;;;;;12.93;11.80;;;;;;;;;;4995570;28;20045;-76
2023/10/06 06:54:48;;;;;;;12.43;11.23;;;;;;;;;;4993273;28;20041;-76
2023/10/06 06:57:17;;;;;;;13.27;11.05;;;;;;;;;;4995285;28;20034;-75
2023/10/06 06:59:44;;;;;;;54.67;12.38;;;;;;;;;;4997530;28;20108;-75
2023/10/06 07:02:10;;;;;;;48.55;12.40;;;;;;;;;;4981973;28;20037;-75
2023/10/06 07:04:36;;;;;;;37.92;12.45;;;;;;;;;;4998924;28;20034;-75
2023/10/06 07:07:02;;;;;;;35.63;12.00;;;;;;;;;;4999477;28;20396;-76
2023/10/06 07:09:27;;;;;;;31.38;12.80;;;;;;;;;;4993132;28;20032;-76
2023/10/06 07:11:57;;;;;;;22.65;11.30;;;;;;;;;;4996724;28;20053;-75
2023/10/06 07:14:22;;;;;;;21.15;11.98;;;;;;;;;;4989057;28;20125;-76
2023/10/06 07:16:48;;;;;;;16.05;12.18;;;;;;;;;;4987853;28;20125;-76
2023/10/06 07:19:17;;;;;;;20.27;12.77;;;;;;;;;;4989941;28;20057;-76
2023/10/06 07:21:43;;;;;;;;;;;;;;;;;;4994465;28;20392;-76
2023/10/06 07:24:10;;;;;;;17.92;12.10;;;;;;;;;;4993889;28;19995;-76
2023/10/06 07:26:36;;;;;;;29.55;13.32;;;;;;;;;;4991195;28;20042;-75
2023/10/06 07:29:05;;;;;;;25.33;12.63;;;;;;;;;;4988400;28;20069;-75
2023/10/06 07:31:31;;;;;;;20.38;12.95;;;;;;;;;;5015606;28;20033;-75
2023/10/06 07:34:02;;;;;;;22.75;11.75;;;;;;;;;;5021110;28;20318;-75
2023/10/06 07:36:29;;;;;;;24.02;11.98;;;;;;;;;;4997230;28;20042;-75
2023/10/06 07:38:54;;;;;;;24.75;12.23;;;;;;;;;;4994043;28;20046;-75
2023/10/06 07:41:23;;;;;;;25.73;11.52;;;;;;;;;;4993518;28;20123;-75
2023/10/06 07:43:52;;;;;;;31.20;11.23;;;;;;;;;;4994526;28;20072;-75
2023/10/06 07:46:18;;;;;;;18.20;11.25;;;;;;;;;;4995598;28;20040;-74
2023/10/06 07:48:47;;;;;;;19.67;12.05;;;;;;;;;;4994233;28;20037;-75
2023/10/06 07:51:19;;;;;;;13.50;12.20;;;;;;;;;;4997802;28;20045;-75
2023/10/06 07:53:45;;;;;;;16.23;12.57;;;;;;;;;;4998140;28;20034;-75
2023/10/06 07:56:11;;;;;;;13.23;11.82;;;;;;;;;;4993828;28;20046;-75
2023/10/06 07:58:38;;;;;;;13.50;11.65;;;;;;;;;;4993622;28;20050;-75
2023/10/06 08:01:07;;;;;;;13.93;12.60;;;;;;;;;;4991029;28;20125;-75
2023/10/06 08:03:41;;;;;;;13.38;12.18;;;;;;;;;;4992685;28;20037;-75
2023/10/06 08:06:16;;;;;;;12.65;11.52;;;;;;;;;;4972403;28;20535;-76
2023/10/06 08:08:42;;;;;;;13.27;12.18;;;;;;;;;;4994858;28;20061;-76
2023/10/06 08:11:09;;;;;;;12.73;11.57;;;;;;;;;;4998457;28;20069;-76
2023/10/06 08:13:35;;;;;;;13.10;11.75;;;;;;;;;;4989576;28;20034;-76
2023/10/06 08:16:02;;;;;;;12.07;10.95;;;;;;;;;;4994275;28;20088;-76
2023/10/06 08:18:29;;;;;;;11.75;10.68;;;;;;;;;;4991287;28;20038;-76
2023/10/06 08:21:03;;;;;;;11.88;10.88;;;;;;;;;;4987459;28;20025;-75
2023/10/06 08:23:32;;;;;;;13.02;11.25;;;;;;;;;;4991130;28;20521;-76
2023/10/06 08:25:58;;;;;;;;;;;;;;;;;;4993939;28;20046;-76
2023/10/06 08:28:26;;;;;;;11.52;10.57;;;;;;;;;;4994047;28;19913;-76
2023/10/06 08:30:52;;;;;;;11.90;10.80;;;;;;;;;;4993211;28;20037;-75
2023/10/06 08:33:18;;;;;;;12.45;11.25;;;;;;;;;;4993709;28;20118;-76
2023/10/06 08:35:44;;;;;;;12.10;11.10;;;;;;;;;;4993772;28;20094;-76
2023/10/06 08:38:10;;;;;;;11.85;10.75;;;;;;;;;;4996712;28;20116;-76
2023/10/06 08:40:37;;;;;;;12.00;10.88;;;;;;;;;;4993125;28;20045;-75
2023/10/06 08:43:06;;;;;;;11.40;10.50;;;;;;;;;;4994384;28;20049;-76
2023/10/06 08:45:36;;;;;;;12.07;10.77;;;;;;;;;;4993379;28;20506;-76
2023/10/06 08:48:02;;;;;;;11.75;10.60;;;;;;;;;;4988800;28;20117;-75
2023/10/06 08:50:30;;;;;;;12.70;10.82;;;;;;;;;;4990921;28;20212;-75
2023/10/06 08:52:58;;;;;;;11.63;10.32;;;;;;;;;;4993664;28;20041;-76
2023/10/06 08:55:25;;;;;;;11.93;10.43;;;;;;;;;;4990129;28;20042;-76
2023/10/06 08:57:52;;;;;;;12.75;10.57;;;;;;;;;;4977150;28;20034;-76
2023/10/06 09:00:22;;;;;;;12.52;11.23;;;;;;;;;;4998492;28;20052;-76
2023/10/06 09:02:54;;;;;;;11.75;10.68;;;;;;;;;;4996609;28;20068;-76
2023/10/06 09:05:20;;;;;;;12.77;10.50;;;;;;;;;;4992223;28;20057;-76
2023/10/06 09:08:07;;;;;;;11.40;10.27;;;;;;;;;;4989507;28;20042;-75
2023/10/06 09:10:35;;;;;;;11.50;10.50;;;;;;;;;;4993695;28;20029;-75
2023/10/06 09:13:06;;;;;;;12.30;10.60;;;;;;;;;;4987202;28;20038;-76
2023/10/06 09:15:35;;;;;;;11.98;10.93;;;;;;;;;;4993142;28;20062;-76
2023/10/06 09:18:14;;;;;;;11.65;10.57;;;;;;;;;;4987909;28;20042;-75
2023/10/06 09:20:40;;;;;;;11.60;10.43;;;;;;;;;;4996684;28;20046;-74
2023/10/06 09:23:06;;;;;;;12.57;10.95;;;;;;;;;;4988352;28;20041;-74
2023/10/06 09:25:45;;;;;;;15.73;11.10;;;;;;;;;;4990274;28;20038;-75
2023/10/06 09:28:16;;;;;;;13.38;11.63;;;;;;;;;;4974302;28;20778;-75
2023/10/06 09:31:00;;;;;;;12.43;11.13;;;;;;;;;;4992130;28;20149;-75
2023/10/06 09:33:41;;;;;;;12.68;10.27;;;;;;;;;;4996317;28;20113;-75
2023/10/06 09:36:16;;;;;;;12.55;11.27;;;;;;;;;;4991936;28;20882;-75
2023/10/06 09:38:44;;;;;;;12.93;11.13;;;;;;;;;;4991891;28;20040;-76
2023/10/06 09:41:11;;;;;;;13.07;10.77;;;;;;;;;;4985365;28;20567;-77
2023/10/06 09:43:40;;;;;;;12.15;10.93;;;;;;;;;;4990747;28;20105;-76
2023/10/06 09:46:06;;;;;;;11.77;10.57;;;;;;;;;;4991849;28;20030;-76
2023/10/06 09:48:36;;;;;;;18.30;10.88;;;;;;;;;;4993623;28;20041;-76
2023/10/06 09:51:07;;;;;;;13.45;10.73;;;;;;;;;;5003540;28;20042;-75
2023/10/06 09:53:43;;;;;;;16.88;10.48;;;;;;;;;;4994247;28;20492;-76
2023/10/06 09:56:12;;;;;;;12.18;10.88;;;;;;;;;;4986142;28;20050;-76
2023/10/06 09:58:44;;;;;;;12.93;11.38;;;;;;;;;;4987614;28;20632;-76
2023/10/06 10:01:14;;;;;;;12.18;10.75;;;;;;;;;;4995819;28;20037;-75
2023/10/06 10:03:41;;;;;;;14.35;11.43;;;;;;;;;;4993201;28;20041;-75
2023/10/06 10:06:07;;;;;;;14.75;10.60;;;;;;;;;;4992482;28;20687;-76
2023/10/06 10:08:39;;;;;;;11.02;9.85;;;;;;;;;;4989112;28;20052;-76
2023/10/06 10:11:15;;;;;;;12.32;10.45;;;;;;;;;;4991080;28;20038;-76
2023/10/06 10:14:18;;;;;;;11.70;10.27;;;;;;;;;;4986674;28;20057;-75
2023/10/06 10:17:13;;;;;;;15.23;10.15;;;;;;;;;;4987556;28;20058;-76
2023/10/06 10:19:43;;;;;;;12.32;10.60;;;;;;;;;;4993336;28;20037;-76
2023/10/06 10:22:13;;;;;;;11.70;10.57;;;;;;;;;;4991424;28;20053;-76
2023/10/06 10:24:39;;;;;;;12.30;11.10;;;;;;;;;;4995558;28;20037;-76
2023/10/06 10:27:13;;;;;;;13.43;11.20;;;;;;;;;;4986573;28;20038;-76
2023/10/06 10:29:40;;;;;;;12.75;11.45;;;;;;;;;;4990662;28;20030;-75
2023/10/06 10:32:23;;;;;;;15.02;11.13;;;;;;;;;;4992884;28;20809;-73
2023/10/06 10:35:18;;;;;;;12.55;11.00;;;;;;;;;;5004856;28;20040;-76
2023/10/06 10:38:02;;;;;;;13.18;10.65;;;;;;;;;;4990207;28;20042;-76
2023/10/06 10:40:29;;;;;;;12.32;11.05;;;;;;;;;;4985213;28;20040;-75
2023/10/06 10:43:00;;;;;;;12.55;11.25;;;;;;;;;;4990800;28;20049;-75
2023/10/06 10:45:36;;;;;;;12.98;11.27;;;;;;;;;;4995214;28;20036;-75
2023/10/06 10:48:15;;;;;;;11.73;10.63;;;;;;;;;;4991007;28;20095;-75
2023/10/06 10:51:10;;;;;;;15.93;11.82;;;;;;;;;;4994471;28;20115;-75
2023/10/06 10:53:41;;;;;;;11.77;10.63;;;;;;;;;;4949250;28;20049;-75
2023/10/06 10:56:39;;;;;;;13.23;11.90;;;;;;;;;;4952962;28;20134;-74
2023/10/06 10:59:05;;;;;;;13.80;11.38;;;;;;;;;;4949479;28;20047;-75
2023/10/06 11:01:31;;;;;;;12.55;11.23;;;;;;;;;;4935202;28;20051;-75
2023/10/06 11:04:13;;;;;;;14.35;11.05;;;;;;;;;;4952455;28;20129;-76
2023/10/06 11:06:39;;;;;;;12.65;11.35;;;;;;;;;;4937476;28;20042;-76
2023/10/06 11:09:25;;;;;;;15.05;11.13;;;;;;;;;;4953567;28;20941;-76
2023/10/06 11:11:58;;;;;;;12.38;11.07;;;;;;;;;;4952489;28;20116;-76
2023/10/06 11:14:29;;;;;;;12.30;11.15;;;;;;;;;;4956882;28;20034;-76
2023/10/06 11:17:05;;;;;;;13.00;11.63;;;;;;;;;;4954592;28;20105;-76
2023/10/06 11:19:32;;;;;;;13.63;10.98;;;;;;;;;;4955495;28;20122;-75
2023/10/06 11:22:11;;;;;;;12.55;11.40;;;;;;;;;;4953606;28;20050;-75
2023/10/06 11:24:36;;;;;;;12.18;11.15;;;;;;;;;;4949232;28;20177;-76
2023/10/06 11:27:22;;;;;;;12.55;10.98;;;;;;;;;;4932979;28;20133;-76
2023/10/06 11:29:51;;;;;;;13.45;11.45;;;;;;;;;;4968087;28;20046;-76
2023/10/06 11:32:18;;;;;;;12.07;10.88;;;;;;;;;;4985730;28;20121;-76
2023/10/06 11:34:48;;;;;;;12.57;10.80;;;;;;;;;;4993530;28;20403;-76
2023/10/06 11:37:22;;;;;;;13.75;10.90;;;;;;;;;;4990292;28;20657;-76
2023/10/06 11:39:52;;;;;;;12.30;10.82;;;;;;;;;;4991394;28;20090;-76
2023/10/06 11:42:29;;;;;;;12.23;10.85;;;;;;;;;;4988604;28;20038;-76
2023/10/06 11:44:57;;;;;;;11.73;10.52;;;;;;;;;;4988652;28;20041;-75
2023/10/06 11:47:28;;;;;;;12.27;11.00;;;;;;;;;;5005317;28;20022;-74
2023/10/06 11:49:58;;;;;;;12.32;10.68;;;;;;;;;;4975524;28;20094;-76
2023/10/06 11:52:24;;;;;;;12.55;11.25;;;;;;;;;;5001075;28;20145;-75
2023/10/06 11:54:56;;;;;;;14.90;11.02;;;;;;;;;;4995822;28;20167;-75
2023/10/06 11:57:47;;;;;;;12.88;11.50;;;;;;;;;;4975881;28;20057;-76
2023/10/06 12:00:17;;;;;;;13.05;11.40;;;;;;;;;;4990320;28;20116;-75
2023/10/06 12:02:50;;;;;;;11.55;10.50;;;;;;;;;;4986226;28;20096;-75
2023/10/06 12:05:17;;;;;;;12.95;11.40;;;;;;;;;;4989068;28;20045;-76
2023/10/06 12:07:43;;;;;;;12.35;11.13;;;;;;;;;;4993446;28;20041;-76
2023/10/06 12:10:09;;;;;;;16.30;11.55;;;;;;;;;;4988471;28;20034;-76
2023/10/06 12:12:34;;;;;;;13.20;12.00;;;;;;;;;;4990241;28;20034;-76
2023/10/06 12:15:02;;;;;;;13.63;11.50;;;;;;;;;;4990999;28;20136;-76
2023/10/06 12:17:27;;;;;;;14.52;12.55;;;;;;;;;;4994046;28;20044;-76
2023/10/06 12:19:54;;;;;;;15.98;11.95;;;;;;;;;;4983751;28;20034;-76
2023/10/06 12:22:20;;;;;;;14.43;12.40;;;;;;;;;;4983474;28;20046;-76
2023/10/06 12:24:45;;;;;;;13.27;11.85;;;;;;;;;;4993611;28;20038;-76
2023/10/06 12:27:15;;;;;;;13.43;12.13;;;;;;;;;;4990982;28;20096;-76
2023/10/06 12:29:41;;;;;;;13.77;12.45;;;;;;;;;;4990729;28;20836;-75
2023/10/06 12:32:07;;;;;;;13.25;11.95;;;;;;;;;;4990396;28;20149;-76
2023/10/06 12:34:33;;;;;;;13.80;12.05;;;;;;;;;;4990156;28;20548;-75
2023/10/06 12:37:02;;;;;;;13.18;11.77;;;;;;;;;;4984472;28;20132;-75
2023/10/06 12:39:34;;;;;;;;;;;;;;;;;;4990607;28;20053;-75
2023/10/06 12:42:04;;;;;;;13.50;11.25;;;;;;;;;;4989916;28;19917;-76
2023/10/06 12:44:30;;;;;;;13.13;11.57;;;;;;;;;;4992030;28;20030;-75
2023/10/06 12:46:56;;;;;;;15.18;12.82;;;;;;;;;;4976010;28;20702;-76
2023/10/06 12:49:27;;;;;;;12.90;11.60;;;;;;;;;;4986111;28;20041;-75
2023/10/06 12:51:52;;;;;;;13.07;11.70;;;;;;;;;;4987654;28;20045;-76
2023/10/06 12:54:19;;;;;;;13.10;11.80;;;;;;;;;;4986225;28;20034;-76
2023/10/06 12:56:46;;;;;;;12.60;11.30;;;;;;;;;;4986269;28;20037;-75
2023/10/06 12:59:12;;;;;;;13.35;12.02;;;;;;;;;;4984544;28;21797;-75
2023/10/06 13:01:38;;;;;;;13.00;11.80;;;;;;;;;;4984333;28;20037;-75
2023/10/06 13:04:08;;;;;;;12.68;11.45;;;;;;;;;;4987053;28;20046;-75
2023/10/06 13:06:33;;;;;;;13.65;12.25;;;;;;;;;;4988154;28;20041;-75
2023/10/06 13:09:03;;;;;;;13.30;11.90;;;;;;;;;;4985879;28;20038;-76
2023/10/06 13:11:29;;;;;;;12.02;10.82;;;;;;;;;;4988260;28;20035;-75
2023/10/06 13:13:55;;;;;;;13.35;11.73;;;;;;;;;;4983035;28;20036;-77
2023/10/06 13:16:21;;;;;;;14.18;11.32;;;;;;;;;;4992392;28;20034;-76
2023/10/06 13:18:46;;;;;;;13.00;11.70;;;;;;;;;;4991581;28;20775;-76
2023/10/06 13:21:12;;;;;;;13.63;11.82;;;;;;;;;;4986453;28;20044;-76
2023/10/06 13:23:38;;;;;;;12.82;11.57;;;;;;;;;;4988690;28;20041;-76
2023/10/06 13:26:04;;;;;;;13.68;12.27;;;;;;;;;;4988176;28;20033;-76
2023/10/06 13:28:31;;;;;;;14.35;11.70;;;;;;;;;;4976144;28;20563;-76
2023/10/06 13:30:57;;;;;;;13.18;11.40;;;;;;;;;;4989508;28;20563;-76
2023/10/06 13:33:25;;;;;;;12.80;11.23;;;;;;;;;;4989316;28;20034;-76
2023/10/06 13:35:51;;;;;;;13.48;12.15;;;;;;;;;;4988755;28;20052;-75
2023/10/06 13:38:16;;;;;;;13.40;11.93;;;;;;;;;;4983797;28;20034;-76
2023/10/06 13:40:46;;;;;;;12.50;11.25;;;;;;;;;;4987318;28;20535;-76
2023/10/06 13:43:13;;;;;;;12.80;11.00;;;;;;;;;;4989769;28;20041;-75
2023/10/06 13:45:45;;;;;;;12.60;11.43;;;;;;;;;;4987637;28;20042;-76
2023/10/06 13:48:12;;;;;;;12.05;10.90;;;;;;;;;;4986700;28;20045;-76
2023/10/06 13:50:40;;;;;;;12.50;11.20;;;;;;;;;;4988219;28;20053;-76
2023/10/06 13:53:07;;;;;;;12.68;11.10;;;;;;;;;;4986806;28;20038;-75
2023/10/06 13:55:34;;;;;;;14.00;12.00;;;;;;;;;;4986032;28;20988;-75
2023/10/06 13:58:04;;;;;;;13.63;11.15;;;;;;;;;;4988509;28;20121;-75
2023/10/06 14:00:32;;;;;;;12.63;11.43;;;;;;;;;;4991628;28;20038;-75
2023/10/06 14:03:08;;;;;;;12.57;11.27;;;;;;;;;;4987681;28;20152;-74
2023/10/06 14:05:41;;;;;;;14.35;11.50;;;;;;;;;;4991553;28;20041;-75
2023/10/06 14:08:13;;;;;;;12.23;11.13;;;;;;;;;;4991896;28;20088;-75
2023/10/06 14:10:39;;;;;;;13.35;11.57;;;;;;;;;;4996448;28;20038;-75
2023/10/06 14:13:16;;;;;;;13.95;12.27;;;;;;;;;;4995340;28;20092;-75
2023/10/06 14:18:13;;;;;;;18.10;12.23;;;;;;;;;;4996109;28;20164;-75
2023/10/06 14:20:40;;;;;;;14.88;11.57;;;;;;;;;;4994082;28;20381;-75
2023/10/06 14:23:11;;;;;;;13.90;12.07;;;;;;;;;;4990051;28;20454;-75
2023/10/06 14:25:38;;;;;;;13.27;11.75;;;;;;;;;;4992542;28;20049;-74
2023/10/06 14:28:09;;;;;;;12.57;11.30;;;;;;;;;;4992184;28;20200;-75
2023/10/06 14:30:42;;;;;;;12.77;11.30;;;;;;;;;;4990877;28;20038;-74
2023/10/06 14:35:52;;;;;;;14.63;11.98;;;;;;;;;;4986218;28;20096;-75
2023/10/06 14:46:41;;;;;;;14.15;11.98;;;;;;;;;;4994649;28;20041;-76
2023/10/06 14:49:13;;;;;;;13.27;11.48;;;;;;;;;;4990535;28;20025;-75
2023/10/06 14:51:41;;;;;;;17.08;11.93;;;;;;;;;;4990528;28;20511;-75
2023/10/06 14:54:08;;;;;;;13.80;11.68;;;;;;;;;;4993057;28;20046;-76
2023/10/06 14:56:36;;;;;;;16.98;12.25;;;;;;;;;;4990577;28;20042;-76
2023/10/06 14:59:04;;;;;;;13.70;11.80;;;;;;;;;;4989682;28;21064;-76